Time;durP1;ratioP1;P1;durP2;ratioP2;P2;SDS_P1;SDS_P2;PMS_P1;PMS_P2;Temp;Humidity;BMP_temperature;BMP_pressure;BME280_temperature;BME280_humidity;BME280_pressure;Samples;Min_cycle;Max_cycle;Signal;HPM_P1;HPM_P2
2022/08/12 00:44:51;;;;;;;1.52;1.42;;;;;;;;;;5020481;28;20207;-79
2022/08/12 00:47:20;;;;;;;2.10;2.00;;;;;;;;;;5015386;28;20242;-80
2022/08/12 00:49:49;;;;;;;1.80;1.70;;;;;;;;;;5016079;28;20219;-81
2022/08/12 00:52:19;;;;;;;1.98;1.58;;;;;;;;;;5015956;28;20290;-78
2022/08/12 00:54:49;;;;;;;2.03;1.85;;;;;;;;;;5016182;28;20233;-78
2022/08/12 00:57:20;;;;;;;1.73;1.63;;;;;;;;;;5015554;28;20203;-79
2022/08/12 00:59:51;;;;;;;3.00;1.75;;;;;;;;;;5015770;28;20734;-79
2022/08/12 01:02:24;;;;;;;1.40;1.30;;;;;;;;;;5015575;28;20229;-78
2022/08/12 01:13:19;;;;;;;1.60;1.50;;;;;;;;;;5016303;28;20213;-80
2022/08/12 01:15:49;;;;;;;1.60;1.50;;;;;;;;;;5015320;28;20285;-79
2022/08/12 01:18:18;;;;;;;1.52;1.42;;;;;;;;;;5015024;28;20603;-78
2022/08/12 01:21:00;;;;;;;1.60;1.50;;;;;;;;;;5015259;28;20207;-79
2022/08/12 01:23:54;;;;;;;1.60;1.50;;;;;;;;;;5015536;28;20229;-80
2022/08/12 01:26:25;;;;;;;1.27;1.20;;;;;;;;;;5014966;28;20290;-79
2022/08/12 01:28:59;;;;;;;2.42;1.40;;;;;;;;;;5014998;28;20770;-78
2022/08/12 01:31:29;;;;;;;1.75;1.65;;;;;;;;;;5014734;28;20265;-79
2022/08/12 01:34:03;;;;;;;1.80;1.67;;;;;;;;;;5015404;28;20291;-80
2022/08/12 01:36:40;;;;;;;1.65;1.55;;;;;;;;;;5015118;28;20206;-79
2022/08/12 01:39:08;;;;;;;1.63;1.52;;;;;;;;;;5014486;28;20266;-80
2022/08/12 01:41:44;;;;;;;2.00;1.83;;;;;;;;;;5014568;28;20199;-79
2022/08/12 01:44:13;;;;;;;1.38;1.38;;;;;;;;;;5025382;28;20317;-80
2022/08/12 01:46:48;;;;;;;1.83;1.48;;;;;;;;;;5034566;28;20199;-80
2022/08/12 01:49:50;;;;;;;2.03;1.83;;;;;;;;;;5034661;28;20769;-79
2022/08/12 01:52:29;;;;;;;1.20;1.10;;;;;;;;;;5034819;28;20206;-80
2022/08/12 01:54:59;;;;;;;1.50;1.40;;;;;;;;;;5034740;28;20210;-81
2022/08/12 01:57:38;;;;;;;1.73;1.63;;;;;;;;;;5034519;28;20205;-80
2022/08/12 02:00:12;;;;;;;1.40;1.30;;;;;;;;;;5034794;28;20206;-79
2022/08/12 02:02:46;;;;;;;2.53;1.52;;;;;;;;;;5034628;28;20610;-81
2022/08/12 02:11:27;;;;;;;1.42;1.33;;;;;;;;;;5036397;28;20205;-82
2022/08/12 02:14:18;;;;;;;1.50;1.40;;;;;;;;;;5034764;28;20216;-80
2022/08/12 02:17:08;;;;;;;1.50;1.40;;;;;;;;;;5035204;28;20289;-80
2022/08/12 02:19:56;;;;;;;1.55;1.45;;;;;;;;;;5034647;28;20754;-80
2022/08/12 02:22:29;;;;;;;1.40;1.30;;;;;;;;;;5035192;28;20292;-80
2022/08/12 02:25:07;;;;;;;1.20;1.20;;;;;;;;;;5034551;28;20233;-80
2022/08/12 02:27:39;;;;;;;1.45;1.35;;;;;;;;;;5034728;28;20214;-79
2022/08/12 02:30:11;;;;;;;1.45;1.35;;;;;;;;;;5040422;28;20773;-80
2022/08/12 02:32:42;;;;;;;1.50;1.40;;;;;;;;;;5042784;28;20617;-80
2022/08/12 02:35:13;;;;;;;1.77;1.67;;;;;;;;;;5042752;28;20202;-81
2022/08/12 02:37:44;;;;;;;1.20;1.15;;;;;;;;;;5043302;28;20236;-80
2022/08/12 02:40:14;;;;;;;2.67;1.90;;;;;;;;;;5061088;22;20225;-89
2022/08/12 02:42:50;;;;;;;4.20;1.70;;;;;;;;;;5056906;28;20265;-88
2022/08/12 02:45:25;;;;;;;1.30;1.30;;;;;;;;;;5056958;28;20736;-88
2022/08/12 02:47:55;;;;;;;1.50;1.40;;;;;;;;;;5056725;28;20200;-89
2022/08/12 02:50:24;;;;;;;1.42;1.33;;;;;;;;;;5056302;28;20200;-88
2022/08/12 02:52:52;;;;;;;1.40;1.30;;;;;;;;;;5056392;28;20201;-89
2022/08/12 02:55:22;;;;;;;1.48;1.38;;;;;;;;;;5056440;28;20263;-88
2022/08/12 02:57:52;;;;;;;1.60;1.50;;;;;;;;;;5056861;28;20201;-88
2022/08/12 03:00:22;;;;;;;1.67;1.58;;;;;;;;;;5056305;28;20647;-88
2022/08/12 03:02:52;;;;;;;1.70;1.58;;;;;;;;;;5057004;28;20201;-88
2022/08/12 03:05:23;;;;;;;1.40;1.30;;;;;;;;;;5056449;28;20221;-89
2022/08/12 03:07:54;;;;;;;1.60;1.50;;;;;;;;;;5057934;28;20634;-88
2022/08/12 03:10:24;;;;;;;1.55;1.45;;;;;;;;;;5057097;28;20213;-88
2022/08/12 03:12:52;;;;;;;1.35;1.33;;;;;;;;;;5055699;28;20284;-87
2022/08/12 03:15:23;;;;;;;1.77;1.50;;;;;;;;;;5056499;28;20225;-89
2022/08/12 03:17:54;;;;;;;1.55;1.40;;;;;;;;;;5056234;28;20186;-88
2022/08/12 03:20:23;;;;;;;1.40;1.30;;;;;;;;;;5056182;28;20206;-90
2022/08/12 03:22:52;;;;;;;1.40;1.30;;;;;;;;;;5056101;28;20247;-89
2022/08/12 03:25:26;;;;;;;1.90;1.73;;;;;;;;;;5056100;28;20228;-89
2022/08/12 03:27:57;;;;;;;1.10;1.10;;;;;;;;;;5056279;28;20194;-89
2022/08/12 03:30:30;;;;;;;1.33;1.30;;;;;;;;;;5055783;28;20232;-89
2022/08/12 03:32:59;;;;;;;1.40;1.33;;;;;;;;;;5056278;28;20280;-89
2022/08/12 03:35:29;;;;;;;1.73;1.63;;;;;;;;;;5056082;28;20235;-88
2022/08/12 03:37:59;;;;;;;1.88;1.75;;;;;;;;;;5055977;28;20204;-89
2022/08/12 04:00:23;;;;;;;1.73;1.63;;;;;;;;;;5056695;28;20185;-88
2022/08/12 04:02:57;;;;;;;1.75;1.30;;;;;;;;;;5056760;28;20198;-89
2022/08/12 04:05:26;;;;;;;1.40;1.30;;;;;;;;;;5055269;28;20274;-89
2022/08/12 04:07:54;;;;;;;1.70;1.60;;;;;;;;;;5055408;28;20589;-89
2022/08/12 04:13:13;;;;;;;1.70;1.60;;;;;;;;;;5055353;28;20281;-89
2022/08/12 04:13:15;;;;;;;1.83;1.58;;;;;;;;;;5055604;28;20190;-88
2022/08/12 04:15:44;;;;;;;1.50;1.40;;;;;;;;;;5055636;28;20288;-88
2022/08/12 04:18:15;;;;;;;1.75;1.65;;;;;;;;;;5055913;28;20245;-88
2022/08/12 04:20:46;;;;;;;1.40;1.30;;;;;;;;;;5055412;28;20550;-89
2022/08/12 04:23:16;;;;;;;1.20;1.20;;;;;;;;;;5055049;28;20194;-88
2022/08/12 04:25:44;;;;;;;1.50;1.42;;;;;;;;;;5055512;28;20217;-88
2022/08/12 04:28:13;;;;;;;1.88;1.77;;;;;;;;;;5055287;28;20193;-89
2022/08/12 04:30:41;;;;;;;1.58;1.48;;;;;;;;;;5055103;28;20202;-89
2022/08/12 04:33:10;;;;;;;1.42;1.33;;;;;;;;;;5055279;28;20565;-90
2022/08/12 04:35:39;;;;;;;1.40;1.40;;;;;;;;;;5055214;28;20222;-89
2022/08/12 04:38:08;;;;;;;1.38;1.27;;;;;;;;;;5055016;28;20666;-89
2022/08/12 04:40:36;;;;;;;1.23;1.13;;;;;;;;;;5055277;28;20271;-89
2022/08/12 04:43:05;;;;;;;1.20;1.20;;;;;;;;;;5055128;28;20202;-89
2022/08/12 04:45:37;;;;;;;1.85;1.38;;;;;;;;;;5054844;28;20233;-89
2022/08/12 04:48:05;;;;;;;1.40;1.30;;;;;;;;;;5054710;28;20193;-89
2022/08/12 04:50:33;;;;;;;1.40;1.40;;;;;;;;;;5055621;28;20194;-89
2022/08/12 04:53:04;;;;;;;1.80;1.70;;;;;;;;;;5054460;28;20197;-88
2022/08/12 04:55:33;;;;;;;1.98;1.30;;;;;;;;;;5054474;28;20302;-89
2022/08/12 04:58:01;;;;;;;1.42;1.33;;;;;;;;;;5054319;28;20205;-88
2022/08/12 05:00:28;;;;;;;1.30;1.25;;;;;;;;;;5054042;28;20229;-90
2022/08/12 05:02:56;;;;;;;1.83;1.73;;;;;;;;;;5053796;28;20638;-88
2022/08/12 05:05:24;;;;;;;1.65;1.30;;;;;;;;;;5053489;28;20232;-89
2022/08/12 05:07:53;;;;;;;1.35;1.25;;;;;;;;;;5054352;28;20197;-88
2022/08/12 05:10:22;;;;;;;1.70;1.60;;;;;;;;;;5054409;28;20204;-89
2022/08/12 05:12:56;;;;;;;1.60;1.50;;;;;;;;;;5054039;28;20233;-89
2022/08/12 05:15:23;;;;;;;1.90;1.80;;;;;;;;;;5054314;28;20713;-88
2022/08/12 05:17:52;;;;;;;1.65;1.38;;;;;;;;;;5054110;28;20225;-89
2022/08/12 05:20:21;;;;;;;2.08;1.98;;;;;;;;;;5053545;28;20262;-89
2022/08/12 05:22:49;;;;;;;3.08;1.60;;;;;;;;;;5054788;28;20203;-87
2022/08/12 05:25:18;;;;;;;1.65;1.45;;;;;;;;;;5053578;28;20747;-87
2022/08/12 05:27:47;;;;;;;1.83;1.20;;;;;;;;;;5054177;28;20202;-89
2022/08/12 05:30:15;;;;;;;1.60;1.50;;;;;;;;;;5053879;28;20662;-89
2022/08/12 05:32:42;;;;;;;1.42;1.23;;;;;;;;;;5053818;28;20285;-89
2022/08/12 05:35:10;;;;;;;1.60;1.42;;;;;;;;;;5053543;28;20347;-85
2022/08/12 05:37:38;;;;;;;1.77;1.65;;;;;;;;;;5053481;28;20264;-89
2022/08/12 05:40:07;;;;;;;1.63;1.50;;;;;;;;;;5053595;28;20241;-90
2022/08/12 05:42:35;;;;;;;2.25;1.33;;;;;;;;;;5053165;28;20288;-89
2022/08/12 05:45:04;;;;;;;1.35;1.25;;;;;;;;;;5052835;28;20240;-88
2022/08/12 05:47:32;;;;;;;1.70;1.50;;;;;;;;;;5053463;28;20292;-88
2022/08/12 05:49:59;;;;;;;1.80;1.70;;;;;;;;;;5053542;28;20197;-90
2022/08/12 05:52:27;;;;;;;1.48;1.40;;;;;;;;;;5053612;28;20201;-88
2022/08/12 05:54:55;;;;;;;1.85;1.70;;;;;;;;;;5053361;28;20225;-89
2022/08/12 05:57:22;;;;;;;1.95;1.85;;;;;;;;;;5052859;28;20209;-86
2022/08/12 05:59:50;;;;;;;2.58;1.52;;;;;;;;;;5053205;28;20240;-90
2022/08/12 06:02:19;;;;;;;1.48;1.38;;;;;;;;;;5052835;28;20290;-90
2022/08/12 06:04:47;;;;;;;1.60;1.52;;;;;;;;;;5053277;28;20724;-90
2022/08/12 06:07:15;;;;;;;1.60;1.50;;;;;;;;;;5053287;28;20202;-90
2022/08/12 06:09:42;;;;;;;1.13;1.13;;;;;;;;;;5053115;28;20194;-90
2022/08/12 06:12:10;;;;;;;1.10;1.10;;;;;;;;;;5052897;28;20194;-89
2022/08/12 06:14:38;;;;;;;2.03;1.90;;;;;;;;;;5052773;28;20213;-90
2022/08/12 06:17:08;;;;;;;2.45;2.25;;;;;;;;;;5053151;28;20229;-89
2022/08/12 06:19:37;;;;;;;1.70;1.60;;;;;;;;;;5053192;28;20655;-89
2022/08/12 06:22:04;;;;;;;1.85;1.70;;;;;;;;;;5052741;28;20197;-89
2022/08/12 06:24:32;;;;;;;2.20;2.00;;;;;;;;;;5053053;28;20299;-89
2022/08/12 06:26:59;;;;;;;1.52;1.45;;;;;;;;;;5052034;28;20210;-90
2022/08/12 06:29:27;;;;;;;1.40;1.30;;;;;;;;;;5052589;28;20296;-89
2022/08/12 06:31:55;;;;;;;1.40;1.30;;;;;;;;;;5052647;28;20197;-89
2022/08/12 06:34:22;;;;;;;1.45;1.35;;;;;;;;;;5053038;28;20228;-89
2022/08/12 06:36:54;;;;;;;1.38;1.30;;;;;;;;;;5052468;28;20254;-88
2022/08/12 06:39:22;;;;;;;1.92;1.30;;;;;;;;;;5052662;28;20212;-89
2022/08/12 06:44:35;;;;;;;1.77;1.67;;;;;;;;;;5052850;28;20320;-89
2022/08/12 06:47:02;;;;;;;1.50;1.40;;;;;;;;;;5052775;28;20253;-89
2022/08/12 06:49:35;;;;;;;1.98;1.33;;;;;;;;;;5052647;28;20244;-89
2022/08/12 06:52:06;;;;;;;2.10;1.90;;;;;;;;;;5052205;28;20208;-88
2022/08/12 06:54:34;;;;;;;2.60;1.42;;;;;;;;;;5052704;28;20631;-89
2022/08/12 06:57:02;;;;;;;1.95;1.80;;;;;;;;;;5052555;28;20251;-88
2022/08/12 06:59:30;;;;;;;2.47;1.65;;;;;;;;;;5052571;28;20240;-88
2022/08/12 07:01:57;;;;;;;1.45;1.35;;;;;;;;;;5052600;28;20570;-89
2022/08/12 07:04:25;;;;;;;2.50;1.92;;;;;;;;;;5052504;28;20251;-87
2022/08/12 07:06:54;;;;;;;2.20;2.10;;;;;;;;;;5052459;28;20678;-88
2022/08/12 07:09:23;;;;;;;1.60;1.50;;;;;;;;;;5052432;28;20280;-89
2022/08/12 07:11:51;;;;;;;1.80;1.70;;;;;;;;;;5052453;28;20610;-87
2022/08/12 07:14:18;;;;;;;1.65;1.55;;;;;;;;;;5052666;28;20288;-86
2022/08/12 07:16:56;;;;;;;1.23;1.17;;;;;;;;;;5053831;28;20589;-86
2022/08/12 07:19:24;;;;;;;1.70;1.60;;;;;;;;;;5054828;28;20190;-87
2022/08/12 07:21:51;;;;;;;1.20;1.20;;;;;;;;;;5055731;28;20292;-87
2022/08/12 07:24:19;;;;;;;1.70;1.60;;;;;;;;;;5054520;28;20233;-87
2022/08/12 07:26:48;;;;;;;1.40;1.30;;;;;;;;;;5056084;28;20315;-87
2022/08/12 07:29:15;;;;;;;1.60;1.50;;;;;;;;;;5055631;28;20237;-87
2022/08/12 07:31:43;;;;;;;1.40;1.35;;;;;;;;;;5055517;28;20288;-88
2022/08/12 07:34:10;;;;;;;2.25;1.42;;;;;;;;;;5056093;28;20241;-87
2022/08/12 07:36:38;;;;;;;1.83;1.70;;;;;;;;;;5055044;28;20253;-87
2022/08/12 07:39:06;;;;;;;1.90;1.80;;;;;;;;;;5057689;28;20579;-84
2022/08/12 07:41:34;;;;;;;1.60;1.38;;;;;;;;;;5058101;28;20205;-87
2022/08/12 07:44:05;;;;;;;1.45;1.40;;;;;;;;;;5058624;28;20650;-88
2022/08/12 07:46:37;;;;;;;1.40;1.30;;;;;;;;;;5059505;28;20246;-80
2022/08/12 07:49:08;;;;;;;1.63;1.52;;;;;;;;;;5062141;28;20182;-85
2022/08/12 07:51:36;;;;;;;1.45;1.40;;;;;;;;;;5061328;28;20737;-84
2022/08/12 07:54:08;;;;;;;4.25;1.45;;;;;;;;;;5061799;28;20204;-84
2022/08/12 07:56:37;;;;;;;1.65;1.55;;;;;;;;;;5062338;28;20221;-84
2022/08/12 07:59:07;;;;;;;2.38;1.63;;;;;;;;;;5063705;28;20235;-85
2022/08/12 08:01:36;;;;;;;2.03;1.92;;;;;;;;;;5063447;28;20189;-86
2022/08/12 08:06:51;;;;;;;2.22;2.13;;;;;;;;;;5062304;28;20236;-83
2022/08/12 08:09:21;;;;;;;1.83;1.73;;;;;;;;;;5060525;28;20705;-84
2022/08/12 08:14:36;;;;;;;2.10;1.80;;;;;;;;;;5059306;28;20209;-84
2022/08/12 08:17:05;;;;;;;1.60;1.50;;;;;;;;;;5050165;23;20257;-86
2022/08/12 08:19:33;;;;;;;1.70;1.60;;;;;;;;;;5035398;28;20249;-87
2022/08/12 08:22:01;;;;;;;1.90;1.20;;;;;;;;;;5035274;28;20285;-88
2022/08/12 08:24:30;;;;;;;1.40;1.40;;;;;;;;;;5036541;28;20658;-83
2022/08/12 08:26:59;;;;;;;1.55;1.45;;;;;;;;;;5036294;28;20226;-84
2022/08/12 08:29:28;;;;;;;1.58;1.48;;;;;;;;;;5038245;28;20600;-82
2022/08/12 08:31:59;;;;;;;1.35;1.25;;;;;;;;;;5037206;28;20241;-82
2022/08/12 08:34:28;;;;;;;1.23;1.23;;;;;;;;;;5040113;28;20210;-84
2022/08/12 08:36:56;;;;;;;1.60;1.50;;;;;;;;;;5039089;28;20621;-83
2022/08/12 08:39:26;;;;;;;2.25;2.05;;;;;;;;;;5039584;28;20698;-85
2022/08/12 08:44:40;;;;;;;1.80;1.67;;;;;;;;;;5019417;28;20242;-83
2022/08/12 08:47:12;;;;;;;1.50;1.40;;;;;;;;;;5023854;28;20272;-85
2022/08/12 08:49:40;;;;;;;4.43;1.95;;;;;;;;;;5037993;28;20301;-84
2022/08/12 08:52:10;;;;;;;1.67;1.58;;;;;;;;;;5037392;28;20229;-85
2022/08/12 08:54:39;;;;;;;1.40;1.30;;;;;;;;;;5036252;28;20293;-85
2022/08/12 08:57:07;;;;;;;1.20;1.20;;;;;;;;;;5035700;28;20249;-84
2022/08/12 08:59:35;;;;;;;1.17;1.08;;;;;;;;;;5039772;28;20237;-86
2022/08/12 09:02:03;;;;;;;1.65;1.40;;;;;;;;;;5045228;28;20546;-86
2022/08/12 09:04:32;;;;;;;1.52;1.42;;;;;;;;;;5041267;28;20285;-86
2022/08/12 09:06:59;;;;;;;1.55;1.45;;;;;;;;;;5036948;28;20675;-84
2022/08/12 09:09:28;;;;;;;1.50;1.40;;;;;;;;;;5037010;28;20222;-85
2022/08/12 09:14:42;;;;;;;3.13;1.70;;;;;;;;;;5040494;28;20205;-84
2022/08/12 09:17:12;;;;;;;1.77;1.67;;;;;;;;;;5045715;28;20226;-81
2022/08/12 09:19:41;;;;;;;1.95;1.70;;;;;;;;;;5034761;28;20296;-85
2022/08/12 09:22:09;;;;;;;1.33;1.30;;;;;;;;;;5035194;28;20761;-84
2022/08/12 09:24:37;;;;;;;2.08;1.50;;;;;;;;;;5033431;28;20202;-84
2022/08/12 09:27:05;;;;;;;1.40;1.30;;;;;;;;;;5035077;28;20742;-84
2022/08/12 09:29:33;;;;;;;2.40;1.48;;;;;;;;;;5034880;28;20226;-84
2022/08/12 09:32:05;;;;;;;1.45;1.35;;;;;;;;;;5034742;28;20202;-85
2022/08/12 09:34:33;;;;;;;1.88;1.77;;;;;;;;;;5034517;28;20217;-82
2022/08/12 09:37:03;;;;;;;1.88;1.73;;;;;;;;;;5033976;28;20218;-82
2022/08/12 09:39:32;;;;;;;2.13;1.55;;;;;;;;;;5034739;28;20309;-83
2022/08/12 09:47:29;;;;;;;1.77;1.30;;;;;;;;;;5023743;28;20212;-86
2022/08/12 09:49:57;;;;;;;1.50;1.40;;;;;;;;;;5033967;28;20222;-84
2022/08/12 09:52:25;;;;;;;1.50;1.40;;;;;;;;;;5034300;28;20293;-85
2022/08/12 09:54:53;;;;;;;1.58;1.48;;;;;;;;;;5034334;28;20210;-85
2022/08/12 09:57:21;;;;;;;1.58;1.48;;;;;;;;;;5032765;28;20317;-84
2022/08/12 09:59:48;;;;;;;1.70;1.60;;;;;;;;;;5013790;28;20246;-82
2022/08/12 10:02:16;;;;;;;1.27;1.27;;;;;;;;;;5022208;28;20197;-84
2022/08/12 10:04:45;;;;;;;1.83;1.73;;;;;;;;;;5034293;28;20285;-82
2022/08/12 10:07:12;;;;;;;1.70;1.60;;;;;;;;;;5034388;28;20202;-84
2022/08/12 10:09:41;;;;;;;1.60;1.50;;;;;;;;;;5033898;28;20312;-86
2022/08/12 10:15:06;;;;;;;1.90;1.80;;;;;;;;;;4992719;28;20199;-84
2022/08/12 10:17:34;;;;;;;1.17;1.17;;;;;;;;;;5024749;28;20304;-85
2022/08/12 10:20:01;;;;;;;1.65;1.55;;;;;;;;;;5034417;28;20732;-84
2022/08/12 10:22:29;;;;;;;2.22;2.03;;;;;;;;;;5034140;28;20272;-85
2022/08/12 10:30:43;;;;;;;1.85;1.73;;;;;;;;;;4991281;28;20611;-83
2022/08/12 10:33:11;;;;;;;1.40;1.30;;;;;;;;;;4991259;28;20331;-82
2022/08/12 10:35:40;;;;;;;1.20;1.20;;;;;;;;;;5008503;28;20292;-82
2022/08/12 10:38:08;;;;;;;1.50;1.40;;;;;;;;;;5032381;28;20230;-82
2022/08/12 10:43:39;;;;;;;1.13;1.13;;;;;;;;;;5032466;28;20221;-83
2022/08/12 10:43:41;;;;;;;1.48;1.38;;;;;;;;;;5032687;28;20206;-83
2022/08/12 10:46:09;;;;;;;1.52;1.42;;;;;;;;;;5033075;28;20279;-85
2022/08/12 10:48:37;;;;;;;1.38;1.27;;;;;;;;;;5032876;28;20351;-82
2022/08/12 10:51:05;;;;;;;1.35;1.33;;;;;;;;;;5032405;28;20202;-84
2022/08/12 10:53:33;;;;;;;1.40;1.35;;;;;;;;;;5032756;28;20638;-82
2022/08/12 10:56:02;;;;;;;1.60;1.50;;;;;;;;;;5032266;28;20217;-83
2022/08/12 10:58:29;;;;;;;1.60;1.50;;;;;;;;;;5032611;28;20320;-83
2022/08/12 11:00:57;;;;;;;1.65;1.55;;;;;;;;;;5035338;28;20264;-80
2022/08/12 11:03:24;;;;;;;1.58;1.48;;;;;;;;;;5036696;28;20289;-83
2022/08/12 11:05:54;;;;;;;1.60;1.50;;;;;;;;;;5036425;28;20206;-83
2022/08/12 11:08:21;;;;;;;1.20;1.20;;;;;;;;;;5037732;28;20198;-80
2022/08/12 11:10:50;;;;;;;1.55;1.45;;;;;;;;;;5062921;22;20243;-82
2022/08/12 11:13:19;;;;;;;1.70;1.30;;;;;;;;;;5058255;28;20201;-81
2022/08/12 11:15:46;;;;;;;1.58;1.48;;;;;;;;;;5058107;28;20235;-81
2022/08/12 11:18:14;;;;;;;1.60;1.50;;;;;;;;;;5059780;28;20312;-82
2022/08/12 11:20:42;;;;;;;2.42;1.50;;;;;;;;;;5077379;28;20228;-81
2022/08/12 11:23:11;;;;;;;1.80;1.70;;;;;;;;;;5078408;28;20236;-81
2022/08/12 11:25:38;;;;;;;1.60;1.50;;;;;;;;;;5077125;28;20750;-81
2022/08/12 11:28:06;;;;;;;1.80;1.70;;;;;;;;;;5078859;28;20244;-81
2022/08/12 11:30:34;;;;;;;1.15;1.15;;;;;;;;;;5077127;28;20284;-81
2022/08/12 11:33:02;;;;;;;1.60;1.50;;;;;;;;;;5077550;28;20654;-80
2022/08/12 11:35:30;;;;;;;1.48;1.38;;;;;;;;;;5078024;28;20602;-81
2022/08/12 11:37:59;;;;;;;1.48;1.45;;;;;;;;;;5076821;28;20243;-80
2022/08/12 11:40:28;;;;;;;1.60;1.50;;;;;;;;;;5078313;28;20228;-80
2022/08/12 11:42:56;;;;;;;1.55;1.45;;;;;;;;;;5078126;28;20200;-80
2022/08/12 11:45:23;;;;;;;1.55;1.45;;;;;;;;;;5078097;28;20244;-81
2022/08/12 11:47:53;;;;;;;1.92;1.70;;;;;;;;;;5078262;28;20216;-82
2022/08/12 11:50:22;;;;;;;1.60;1.50;;;;;;;;;;5077712;28;20193;-80
2022/08/12 11:52:50;;;;;;;1.67;1.58;;;;;;;;;;5077596;28;20735;-80
2022/08/12 11:55:17;;;;;;;1.85;1.75;;;;;;;;;;5076999;28;20211;-82
2022/08/12 11:57:52;;;;;;;1.30;1.20;;;;;;;;;;5077739;28;20641;-80
2022/08/12 12:00:20;;;;;;;1.20;1.20;;;;;;;;;;5079404;28;20279;-79
2022/08/12 12:02:48;;;;;;;1.48;1.38;;;;;;;;;;5081533;28;20676;-80
2022/08/12 12:05:18;;;;;;;1.33;1.25;;;;;;;;;;5081640;28;20216;-79
2022/08/12 12:07:47;;;;;;;1.73;1.63;;;;;;;;;;5080186;28;20223;-80
2022/08/12 12:10:19;;;;;;;1.25;1.25;;;;;;;;;;5079339;28;20228;-80
2022/08/12 12:12:47;;;;;;;1.27;1.25;;;;;;;;;;5077108;28;20250;-82
2022/08/12 12:15:14;;;;;;;1.05;1.05;;;;;;;;;;5076941;28;20228;-80
2022/08/12 12:17:43;;;;;;;1.48;1.38;;;;;;;;;;5083442;28;20235;-80
2022/08/12 12:20:12;;;;;;;1.55;1.45;;;;;;;;;;5083935;28;20240;-80
2022/08/12 12:22:42;;;;;;;1.20;1.13;;;;;;;;;;5085296;28;20207;-80
2022/08/12 12:25:11;;;;;;;1.85;1.05;;;;;;;;;;5086135;28;20235;-80
2022/08/12 12:27:50;;;;;;;1.20;1.15;;;;;;;;;;5082831;28;20228;-79
2022/08/12 12:30:18;;;;;;;1.10;1.10;;;;;;;;;;5084212;28;20181;-80
2022/08/12 12:32:46;;;;;;;1.10;1.10;;;;;;;;;;5083258;28;20224;-79
2022/08/12 12:35:14;;;;;;;1.40;1.30;;;;;;;;;;5084239;28;20235;-81
2022/08/12 12:37:55;;;;;;;1.00;1.00;;;;;;;;;;5080961;28;20236;-80
2022/08/12 12:40:23;;;;;;;1.02;1.02;;;;;;;;;;5083164;28;20228;-79
2022/08/12 12:42:51;;;;;;;1.40;1.30;;;;;;;;;;5078996;28;20240;-80
2022/08/12 12:45:19;;;;;;;0.90;0.90;;;;;;;;;;5079992;28;20232;-80
2022/08/12 12:47:58;;;;;;;1.52;1.38;;;;;;;;;;5079863;28;20232;-80
2022/08/12 12:50:27;;;;;;;1.33;1.23;;;;;;;;;;5081716;28;20617;-79
2022/08/12 12:52:56;;;;;;;1.38;1.00;;;;;;;;;;5081913;28;20243;-79
2022/08/12 12:55:25;;;;;;;1.60;1.20;;;;;;;;;;5083790;28;20251;-81
2022/08/12 12:57:53;;;;;;;1.45;1.35;;;;;;;;;;5082670;28;20228;-80
2022/08/12 13:00:23;;;;;;;1.23;1.20;;;;;;;;;;5081171;28;20692;-80
2022/08/12 13:02:55;;;;;;;1.30;1.23;;;;;;;;;;5080008;28;20371;-80
2022/08/12 13:05:26;;;;;;;1.25;1.25;;;;;;;;;;5080505;28;20216;-81
2022/08/12 13:07:57;;;;;;;0.98;0.98;;;;;;;;;;5080611;28;20191;-82
2022/08/12 13:10:25;;;;;;;1.45;1.30;;;;;;;;;;5080846;28;20640;-81
2022/08/12 13:12:54;;;;;;;0.90;0.90;;;;;;;;;;5080070;28;20209;-80
2022/08/12 13:15:22;;;;;;;1.17;1.15;;;;;;;;;;5080529;28;20292;-80
2022/08/12 13:17:52;;;;;;;1.15;1.10;;;;;;;;;;5078615;28;20223;-79
2022/08/12 13:20:21;;;;;;;1.40;1.30;;;;;;;;;;5078915;28;20227;-82
2022/08/12 13:22:50;;;;;;;1.35;1.25;;;;;;;;;;5076858;28;20692;-81
2022/08/12 13:25:19;;;;;;;1.40;1.30;;;;;;;;;;5077836;28;20661;-79
2022/08/12 13:27:48;;;;;;;1.55;1.30;;;;;;;;;;5076293;28;20541;-81
2022/08/12 13:30:19;;;;;;;0.93;0.93;;;;;;;;;;5077509;28;20600;-80
2022/08/12 13:32:50;;;;;;;1.08;1.08;;;;;;;;;;5077615;28;20271;-79
2022/08/12 13:35:18;;;;;;;1.10;1.10;;;;;;;;;;5076461;28;20212;-81
2022/08/12 13:37:51;;;;;;;1.02;1.02;;;;;;;;;;5076270;28;20204;-82
2022/08/12 13:40:21;;;;;;;1.30;1.20;;;;;;;;;;5076509;28;20236;-82
2022/08/12 13:42:49;;;;;;;1.15;1.13;;;;;;;;;;5075832;28;20236;-85
2022/08/12 13:45:17;;;;;;;1.00;1.00;;;;;;;;;;5076588;28;20204;-82
2022/08/12 13:47:54;;;;;;;1.25;1.15;;;;;;;;;;5078350;28;20200;-81
2022/08/12 13:50:23;;;;;;;1.30;1.20;;;;;;;;;;5074670;28;20220;-83
2022/08/12 13:52:51;;;;;;;1.00;1.00;;;;;;;;;;5074018;28;20287;-83
2022/08/12 13:55:24;;;;;;;1.58;1.20;;;;;;;;;;5073725;28;20204;-81
2022/08/12 13:57:53;;;;;;;0.90;0.90;;;;;;;;;;5073836;28;20691;-79
2022/08/12 14:00:21;;;;;;;0.90;0.90;;;;;;;;;;5073993;28;20220;-80
2022/08/12 14:02:48;;;;;;;0.73;0.73;;;;;;;;;;5073723;28;20260;-81
2022/08/12 14:05:16;;;;;;;0.82;0.82;;;;;;;;;;5073574;28;20204;-80
2022/08/12 14:07:56;;;;;;;1.30;0.93;;;;;;;;;;5073878;28;20236;-81
2022/08/12 14:10:37;;;;;;;0.80;0.80;;;;;;;;;;5063931;28;20283;-79
2022/08/12 14:13:07;;;;;;;3.50;1.02;;;;;;;;;;5053951;28;20193;-80
2022/08/12 14:15:36;;;;;;;1.27;1.23;;;;;;;;;;5054210;28;20248;-80
2022/08/12 14:18:12;;;;;;;0.80;0.80;;;;;;;;;;5064533;23;20320;-78
2022/08/12 14:20:41;;;;;;;1.05;1.05;;;;;;;;;;5048773;28;20223;-78
2022/08/12 14:23:08;;;;;;;1.13;1.13;;;;;;;;;;5048885;28;20438;-78
2022/08/12 14:25:38;;;;;;;1.13;1.10;;;;;;;;;;5049742;28;20197;-79
2022/08/12 14:28:14;;;;;;;1.08;0.95;;;;;;;;;;5048843;28;20201;-78
2022/08/12 14:30:52;;;;;;;8.07;1.10;;;;;;;;;;5049121;28;20189;-79
2022/08/12 14:33:21;;;;;;;0.95;0.95;;;;;;;;;;5047994;28;20201;-79
2022/08/12 14:35:48;;;;;;;0.70;0.70;;;;;;;;;;5056767;28;20201;-79
2022/08/12 14:38:20;;;;;;;1.00;1.00;;;;;;;;;;5053318;28;21157;-79
2022/08/12 14:40:51;;;;;;;0.70;0.70;;;;;;;;;;5056043;28;20216;-80
2022/08/12 14:43:19;;;;;;;1.80;0.82;;;;;;;;;;5047162;28;20333;-78
2022/08/12 14:45:47;;;;;;;1.00;1.00;;;;;;;;;;5054989;28;20611;-81
2022/08/12 14:48:17;;;;;;;0.93;0.93;;;;;;;;;;5056381;28;20221;-79
2022/08/12 14:50:45;;;;;;;0.90;0.77;;;;;;;;;;5056004;28;20205;-78
2022/08/12 14:53:16;;;;;;;1.05;1.05;;;;;;;;;;5055027;28;20232;-78
2022/08/12 14:55:48;;;;;;;1.38;1.00;;;;;;;;;;5054516;28;20200;-80
2022/08/12 14:58:18;;;;;;;0.63;0.63;;;;;;;;;;5056879;28;20292;-79
2022/08/12 15:03:34;;;;;;;0.90;0.90;;;;;;;;;;5051877;28;20667;-78
2022/08/12 15:06:03;;;;;;;0.60;0.60;;;;;;;;;;5054986;28;20205;-77
2022/08/12 15:08:33;;;;;;;0.70;0.70;;;;;;;;;;5055183;28;20201;-79
2022/08/12 15:11:02;;;;;;;0.65;0.65;;;;;;;;;;5057366;28;20705;-79
2022/08/12 15:13:33;;;;;;;1.02;0.90;;;;;;;;;;5055206;28;20204;-78
2022/08/12 15:16:02;;;;;;;0.80;0.80;;;;;;;;;;5057966;28;20201;-78
2022/08/12 15:18:31;;;;;;;1.02;1.02;;;;;;;;;;5057627;28;20241;-78
2022/08/12 15:21:02;;;;;;;0.90;0.90;;;;;;;;;;5056359;28;20235;-78
2022/08/12 15:23:31;;;;;;;1.02;0.90;;;;;;;;;;5054346;28;20395;-78
2022/08/12 15:26:03;;;;;;;0.70;0.70;;;;;;;;;;5055296;28;20212;-79
2022/08/12 15:28:35;;;;;;;1.05;1.05;;;;;;;;;;5055405;28;20705;-80
2022/08/12 15:31:05;;;;;;;1.30;1.20;;;;;;;;;;5054818;28;20221;-79
2022/08/12 15:33:33;;;;;;;0.90;0.90;;;;;;;;;;5055367;28;20547;-78
2022/08/12 15:36:01;;;;;;;0.68;0.68;;;;;;;;;;5055596;28;20201;-80
2022/08/12 15:38:30;;;;;;;1.05;0.98;;;;;;;;;;5053767;28;20680;-78
2022/08/12 15:40:58;;;;;;;0.77;0.77;;;;;;;;;;5055687;28;20221;-79
2022/08/12 15:43:28;;;;;;;0.70;0.70;;;;;;;;;;5054844;28;20204;-79
2022/08/12 15:45:58;;;;;;;0.70;0.70;;;;;;;;;;5053463;28;20201;-79
2022/08/12 15:48:26;;;;;;;1.48;1.15;;;;;;;;;;5051892;28;20304;-79
2022/08/12 15:50:54;;;;;;;0.90;0.90;;;;;;;;;;5053543;28;20228;-78
2022/08/12 15:56:05;;;;;;;0.70;0.70;;;;;;;;;;5052616;28;20197;-78
2022/08/12 15:58:32;;;;;;;0.80;0.80;;;;;;;;;;5054150;28;20658;-78
2022/08/12 16:01:01;;;;;;;1.08;0.98;;;;;;;;;;5055153;28;20225;-79
2022/08/12 16:03:32;;;;;;;0.90;0.85;;;;;;;;;;5055568;28;20292;-79
2022/08/12 16:06:00;;;;;;;1.00;0.90;;;;;;;;;;5055430;28;20205;-81
2022/08/12 16:08:38;;;;;;;0.70;0.70;;;;;;;;;;5054954;28;20255;-84
2022/08/12 16:11:08;;;;;;;0.60;0.60;;;;;;;;;;5055185;28;20256;-80
2022/08/12 16:13:36;;;;;;;0.80;0.80;;;;;;;;;;5051886;28;20194;-79
2022/08/12 16:16:08;;;;;;;0.63;0.63;;;;;;;;;;5049899;28;20748;-79
2022/08/12 16:18:37;;;;;;;0.80;0.80;;;;;;;;;;5053967;28;20275;-78
2022/08/12 16:21:05;;;;;;;0.70;0.70;;;;;;;;;;5053072;28;20222;-79
2022/08/12 16:23:34;;;;;;;1.60;0.80;;;;;;;;;;5052813;28;20199;-78
2022/08/12 16:26:02;;;;;;;0.73;0.73;;;;;;;;;;5053251;28;20202;-79
2022/08/12 16:28:30;;;;;;;0.70;0.70;;;;;;;;;;5051784;28;20240;-79
2022/08/12 16:30:58;;;;;;;0.90;0.90;;;;;;;;;;5052883;28;20312;-79
2022/08/12 16:33:35;;;;;;;0.80;0.80;;;;;;;;;;5052295;28;20731;-79
2022/08/12 16:36:04;;;;;;;1.08;0.98;;;;;;;;;;5052158;28;20205;-78
2022/08/12 16:38:33;;;;;;;1.52;1.33;;;;;;;;;;5051383;28;20724;-78
2022/08/12 16:41:00;;;;;;;1.00;1.00;;;;;;;;;;5050152;28;20452;-79
2022/08/12 16:43:32;;;;;;;1.10;1.10;;;;;;;;;;5052971;28;20205;-79
2022/08/12 16:46:02;;;;;;;1.35;1.10;;;;;;;;;;5052216;28;20292;-80
2022/08/12 16:48:32;;;;;;;0.90;0.90;;;;;;;;;;5050693;28;20284;-80
2022/08/12 16:51:01;;;;;;;1.23;1.02;;;;;;;;;;5052211;28;20308;-79